Погода Барра ду Бугресна неделю

Мату-Гросу, Бразилия

16 - 22 июля
  • 16июля
    Сегодня
    +14°
    +29°
    Небольшая облачность
    ВремяПогодаТемператураВлажностьДавлениеВетер, м/сВероятность осадков
    02:00Ясно и безоблачно+14°C87 %751 мм1.5 м/с5 %
    05:00Ясно и безоблачно+13°C92 %752 мм1.3 м/с5 %
    08:00Ясно и безоблачно+17°C77 %753 мм1.3 м/с5 %
    11:00Небольшая облачность+23°C54 %753 мм1.2 м/с5 %
    14:00Небольшая облачность+28°C45 %751 мм0.9 м/с5 %
    17:00Ясно и безоблачно+27°C59 %750 мм1.3 м/с5 %
    20:00Ясно и безоблачно+19°C76 %751 мм1.8 м/с5 %
    23:00Ясно и безоблачно+18°C83 %751 мм1.7 м/с5 %
  • 17июля
    Среда
    +15°
    +32°
    Ясно и безоблачно
    ВремяПогодаТемператураВлажностьДавлениеВетер, м/сВероятность осадков
    02:00Ясно и безоблачно+17°C85 %750 мм0.7 м/с5 %
    05:00Ясно и безоблачно+15°C93 %751 мм0.7 м/с5 %
    08:00Ясно и безоблачно+18°C79 %753 мм0.8 м/с5 %
    11:00Ясно и безоблачно+26°C49 %753 мм1.2 м/с5 %
    14:00Ясно и безоблачно+31°C36 %750 мм1.0 м/с5 %
    17:00Небольшая облачность+29°C49 %749 мм1.8 м/с5 %
    20:00Облачно с прояснениями+21°C63 %750 мм1.9 м/с5 %
    23:00Небольшая облачность+19°C74 %750 мм1.2 м/с5 %
  • 18июля
    Четверг
    +17°
    +33°
    Ясно и безоблачно
    ВремяПогодаТемператураВлажностьДавлениеВетер, м/сВероятность осадков
    02:00Ясно и безоблачно+17°C83 %748 мм0.9 м/с5 %
    05:00Ясно и безоблачно+16°C88 %749 мм0.6 м/с5 %
    08:00Ясно и безоблачно+19°C76 %750 мм0.5 м/с5 %
    11:00Ясно и безоблачно+28°C41 %750 мм0.5 м/с5 %
    14:00Ясно и безоблачно+33°C28 %748 мм1.8 м/с5 %
    17:00Ясно и безоблачно+29°C56 %747 мм1.1 м/с5 %
    20:00Ясно и безоблачно+21°C58 %748 мм2.2 м/с5 %
    23:00Ясно и безоблачно+20°C65 %748 мм1.8 м/с5 %
  • 19июля
    Пятница
    +16°
    +34°
    Ясно и безоблачно
    ВремяПогодаТемператураВлажностьДавлениеВетер, м/сВероятность осадков
    02:00Ясно и безоблачно+18°C67 %748 мм2.1 м/с5 %
    05:00Ясно и безоблачно+18°C63 %748 мм2.1 м/с5 %
    08:00Ясно и безоблачно+20°C57 %750 мм2.3 м/с5 %
    11:00Ясно и безоблачно+30°C32 %751 мм2.2 м/с5 %
    14:00Ясно и безоблачно+34°C23 %748 мм2.2 м/с5 %
    17:00Ясно и безоблачно+30°C48 %748 мм1.3 м/с5 %
    20:00Ясно и безоблачно+22°C44 %749 мм2.9 м/с5 %
    23:00Ясно и безоблачно+21°C54 %749 мм0.5 м/с5 %
Мы используем cookies
Соглашаюсь